createdAt,value
2023-10-30T00:00:39.304Z,995.42
2023-10-30T00:04:36.759Z,995.49
2023-10-30T00:08:36.582Z,995.54
2023-10-30T00:12:36.686Z,995.6
2023-10-30T00:16:37.070Z,995.68
2023-10-30T00:20:36.408Z,995.62
2023-10-30T00:24:36.821Z,995.59
2023-10-30T00:28:36.390Z,995.69
2023-10-30T00:32:36.934Z,995.8
2023-10-30T00:36:36.816Z,995.87
2023-10-30T00:40:36.899Z,995.71
2023-10-30T00:44:36.022Z,995.96
2023-10-30T00:48:36.284Z,995.97
2023-10-30T00:52:36.005Z,996.1
2023-10-30T00:56:36.244Z,996.1
2023-10-30T01:00:39.271Z,996.09
2023-10-30T01:04:37.907Z,996.07
2023-10-30T01:08:36.726Z,996.01
2023-10-30T01:12:36.137Z,996.11
2023-10-30T01:16:36.529Z,996.06
2023-10-30T01:20:38.497Z,996.07
2023-10-30T01:24:36.587Z,996.04
2023-10-30T01:28:36.367Z,996.05
2023-10-30T01:32:36.574Z,996.03
2023-10-30T01:36:36.709Z,996.03
2023-10-30T01:40:39.519Z,996.04
2023-10-30T01:44:35.935Z,996.11
2023-10-30T01:48:36.607Z,996.24
2023-10-30T01:52:36.133Z,996.06
2023-10-30T01:56:36.143Z,996.27
2023-10-30T02:00:40.265Z,996.32
2023-10-30T02:04:36.584Z,996.35
2023-10-30T02:08:36.126Z,996.32
2023-10-30T02:12:36.459Z,996.36
2023-10-30T02:16:36.681Z,996.46
2023-10-30T02:20:36.547Z,996.45
2023-10-30T02:24:36.833Z,996.56
2023-10-30T02:28:36.686Z,996.6
2023-10-30T02:32:36.474Z,996.57
2023-10-30T02:36:36.973Z,996.48
2023-10-30T02:40:37.021Z,996.52
2023-10-30T02:44:36.100Z,996.58
2023-10-30T02:48:36.339Z,996.59
2023-10-30T02:52:36.308Z,996.72
2023-10-30T02:56:36.530Z,996.69
2023-10-30T03:00:39.642Z,996.74
2023-10-30T03:04:38.139Z,996.73
2023-10-30T03:08:36.048Z,996.71
2023-10-30T03:12:36.384Z,996.76
2023-10-30T03:16:36.990Z,996.76
2023-10-30T03:20:36.771Z,996.84
2023-10-30T03:24:36.076Z,996.73
2023-10-30T03:28:36.137Z,996.83
2023-10-30T03:32:36.236Z,996.76
2023-10-30T03:36:36.385Z,996.72
2023-10-30T03:40:36.856Z,996.69
2023-10-30T03:44:36.705Z,996.69
2023-10-30T03:48:36.291Z,996.79
2023-10-30T03:52:36.256Z,996.76
2023-10-30T03:56:36.512Z,996.84
2023-10-30T04:00:39.682Z,996.78
2023-10-30T04:04:36.985Z,996.88
2023-10-30T04:08:35.912Z,996.72
2023-10-30T04:12:36.401Z,996.7
2023-10-30T04:16:36.724Z,996.75
2023-10-30T04:20:36.934Z,996.6
2023-10-30T04:24:37.000Z,996.71
2023-10-30T04:28:36.337Z,996.7
2023-10-30T04:32:36.827Z,996.62
2023-10-30T04:36:36.167Z,996.72
2023-10-30T04:40:36.587Z,996.56
2023-10-30T04:44:36.422Z,996.74
2023-10-30T04:48:36.960Z,996.75
2023-10-30T04:52:35.960Z,996.71
2023-10-30T04:56:36.807Z,996.76
2023-10-30T05:00:36.330Z,996.9
2023-10-30T05:04:36.224Z,996.94
2023-10-30T05:08:36.190Z,996.93
2023-10-30T05:12:36.550Z,996.76
2023-10-30T05:16:36.920Z,996.69
2023-10-30T05:20:36.990Z,996.87
2023-10-30T05:24:37.000Z,996.77
2023-10-30T05:28:38.550Z,996.67
2023-10-30T05:32:36.138Z,996.84
2023-10-30T05:36:36.429Z,996.7
2023-10-30T05:40:36.555Z,996.73
2023-10-30T05:44:36.625Z,996.8
2023-10-30T05:48:36.071Z,996.75
2023-10-30T05:52:36.206Z,996.77
2023-10-30T05:56:36.129Z,996.8
2023-10-30T06:00:42.596Z,996.84
2023-10-30T06:04:37.540Z,996.79
2023-10-30T06:08:36.767Z,996.82
2023-10-30T06:12:36.190Z,996.93
2023-10-30T06:16:36.604Z,996.89
2023-10-30T06:20:36.067Z,997.11
2023-10-30T06:24:36.199Z,996.95
2023-10-30T06:28:36.461Z,997.18
2023-10-30T06:32:36.653Z,997.09
2023-10-30T06:36:36.982Z,997.14
2023-10-30T06:40:36.784Z,997.13
2023-10-30T06:44:36.618Z,997.12
2023-10-30T06:48:36.126Z,997.27
2023-10-30T06:52:36.333Z,997
2023-10-30T06:56:36.257Z,997.09
2023-10-30T07:00:38.819Z,997.29
2023-10-30T07:04:37.500Z,997.15
2023-10-30T07:08:36.762Z,997.18
2023-10-30T07:12:36.018Z,997.16
2023-10-30T07:16:43.041Z,997.29
2023-10-30T07:20:36.249Z,997.51
2023-10-30T07:24:36.249Z,997.57
2023-10-30T07:28:36.530Z,997.64
2023-10-30T07:32:36.552Z,997.74
2023-10-30T07:36:36.877Z,997.7
2023-10-30T07:40:36.743Z,997.51
2023-10-30T07:44:36.685Z,997.51
2023-10-30T07:48:36.312Z,997.65
2023-10-30T07:52:36.245Z,997.77
2023-10-30T07:56:36.528Z,997.84
2023-10-30T08:00:51.828Z,997.86
2023-10-30T08:04:37.096Z,997.97
2023-10-30T08:08:36.665Z,997.93
2023-10-30T08:12:36.718Z,997.7
2023-10-30T08:16:37.427Z,997.74
2023-10-30T08:20:40.011Z,997.63
2023-10-30T08:24:36.250Z,997.6
2023-10-30T08:28:36.456Z,997.62
2023-10-30T08:32:36.606Z,997.52
2023-10-30T08:36:36.695Z,997.67
2023-10-30T08:40:37.092Z,997.7
2023-10-30T08:44:39.401Z,997.82
2023-10-30T08:48:53.622Z,997.79
2023-10-30T08:52:39.648Z,997.79
2023-10-30T08:56:38.024Z,998.03
2023-10-30T09:00:38.958Z,998.19
2023-10-30T09:04:37.162Z,998.17
2023-10-30T09:08:37.686Z,998.24
2023-10-30T09:12:36.472Z,998.21
2023-10-30T09:16:36.914Z,998.33
2023-10-30T09:20:36.875Z,998.18
2023-10-30T09:24:36.227Z,998.01
2023-10-30T09:28:37.935Z,997.83
2023-10-30T09:32:36.761Z,998.07
2023-10-30T09:36:36.217Z,998.21
2023-10-30T09:40:37.373Z,998.05
2023-10-30T09:44:36.559Z,998.15
2023-10-30T09:48:37.171Z,997.97
2023-10-30T09:52:36.436Z,997.98
2023-10-30T09:56:36.304Z,997.88
2023-10-30T10:00:40.508Z,997.77
2023-10-30T10:04:37.304Z,997.84
2023-10-30T10:08:36.717Z,997.78
2023-10-30T10:12:36.172Z,997.85
2023-10-30T10:16:36.811Z,997.84
2023-10-30T10:20:36.168Z,997.82
2023-10-30T10:24:36.378Z,997.77
2023-10-30T10:28:36.395Z,997.99
2023-10-30T10:32:36.772Z,997.91
2023-10-30T10:36:36.913Z,997.81
2023-10-30T10:40:36.317Z,997.8
2023-10-30T10:44:36.206Z,997.5
2023-10-30T10:48:36.631Z,997.45
2023-10-30T10:52:39.409Z,997.61
2023-10-30T10:56:36.017Z,997.72
2023-10-30T11:00:36.418Z,997.87
2023-10-30T11:04:37.211Z,997.85
2023-10-30T11:08:36.177Z,997.54
2023-10-30T11:12:36.337Z,997.66
2023-10-30T11:16:37.128Z,997.69
2023-10-30T11:20:36.998Z,997.83
2023-10-30T11:24:38.337Z,997.65
2023-10-30T11:28:36.419Z,997.57
2023-10-30T11:32:36.907Z,997.63
2023-10-30T11:36:36.802Z,997.63
2023-10-30T11:40:36.896Z,997.39
2023-10-30T11:44:36.730Z,997.51
2023-10-30T11:48:36.773Z,997.56
2023-10-30T11:52:36.781Z,997.42
2023-10-30T11:56:36.161Z,997.52
2023-10-30T12:00:39.932Z,997.39
2023-10-30T12:04:36.705Z,997.35
2023-10-30T12:08:36.312Z,997.36
2023-10-30T12:12:36.576Z,997.22
2023-10-30T12:16:36.947Z,997.25
2023-10-30T12:20:36.929Z,997.05
2023-10-30T12:24:36.235Z,997.07
2023-10-30T12:28:36.270Z,997.01
2023-10-30T12:32:36.592Z,997.1
2023-10-30T12:36:36.665Z,996.99
2023-10-30T12:40:37.001Z,996.95
2023-10-30T12:44:36.664Z,996.94
2023-10-30T12:48:36.904Z,996.95
2023-10-30T12:52:36.172Z,996.91
2023-10-30T12:56:35.959Z,996.82
2023-10-30T13:00:39.082Z,996.72
2023-10-30T13:04:41.120Z,996.77
2023-10-30T13:08:36.070Z,996.73
2023-10-30T13:12:38.532Z,996.67
2023-10-30T13:16:36.622Z,996.51
2023-10-30T13:20:36.617Z,996.5
2023-10-30T13:24:36.698Z,996.43
2023-10-30T13:28:36.263Z,996.4
2023-10-30T13:32:36.459Z,996.46
2023-10-30T13:36:38.841Z,996.35
2023-10-30T13:40:36.846Z,996.37
2023-10-30T13:44:36.611Z,996.22
2023-10-30T13:48:36.919Z,996.21
2023-10-30T13:52:36.234Z,996.18
2023-10-30T13:56:36.334Z,996.07
2023-10-30T14:00:38.946Z,996.09
2023-10-30T14:04:39.029Z,996.1
2023-10-30T14:08:36.124Z,996
2023-10-30T14:12:36.502Z,996.16
2023-10-30T14:16:37.426Z,996.12
2023-10-30T14:20:37.060Z,996.01
2023-10-30T14:24:36.200Z,995.97
2023-10-30T14:28:36.568Z,995.96
2023-10-30T14:32:36.980Z,995.9
2023-10-30T14:36:36.006Z,995.96
2023-10-30T14:40:36.286Z,995.87
2023-10-30T14:44:36.508Z,995.84
2023-10-30T14:48:36.783Z,995.8
2023-10-30T14:52:36.164Z,995.81
2023-10-30T14:56:36.292Z,995.71
2023-10-30T15:00:38.809Z,995.68
2023-10-30T15:04:37.040Z,995.75
2023-10-30T15:08:36.736Z,995.68
2023-10-30T15:12:35.948Z,995.55
2023-10-30T15:16:36.597Z,995.51
2023-10-30T15:20:36.442Z,995.47
2023-10-30T15:24:36.394Z,995.55
2023-10-30T15:28:36.655Z,995.46
2023-10-30T15:32:36.727Z,995.41
2023-10-30T15:36:36.077Z,995.38
2023-10-30T15:40:36.770Z,995.43
2023-10-30T15:44:36.180Z,995.48
2023-10-30T15:48:36.833Z,995.47
2023-10-30T16:00:38.897Z,995.37
2023-10-30T16:09:10.614Z,995.32
2023-10-30T16:12:39.286Z,995.26
2023-10-30T16:16:36.622Z,995.17
2023-10-30T16:21:15.244Z,995.16
2023-10-30T16:24:36.801Z,995.26
2023-10-30T16:28:36.981Z,995.17
2023-10-30T16:32:37.842Z,995.27
2023-10-30T16:36:36.093Z,995.15
2023-10-30T16:40:36.673Z,995.21
2023-10-30T16:44:39.169Z,995.07
2023-10-30T16:48:36.745Z,995.12
2023-10-30T16:52:36.786Z,995.04
2023-10-30T16:56:35.862Z,995.17
2023-10-30T17:00:39.829Z,995.04
2023-10-30T17:04:36.211Z,995.14
2023-10-30T17:08:36.204Z,995.26
2023-10-30T17:12:36.286Z,995.19
2023-10-30T17:16:36.777Z,995.21
2023-10-30T17:20:36.842Z,995.31
2023-10-30T17:24:36.861Z,995.25
2023-10-30T17:28:36.902Z,995.42
2023-10-30T17:32:37.110Z,995.33
2023-10-30T17:36:36.346Z,995.45
2023-10-30T17:40:36.860Z,995.32
2023-10-30T17:44:36.609Z,995.12
2023-10-30T17:48:36.872Z,995.08
2023-10-30T17:52:36.189Z,995.17
2023-10-30T17:56:36.277Z,995.17
2023-10-30T18:00:39.721Z,995.1
2023-10-30T18:04:36.285Z,995.25
2023-10-30T18:08:36.348Z,995.1
2023-10-30T18:12:36.287Z,995.06
2023-10-30T18:16:36.836Z,995.02
2023-10-30T18:20:37.135Z,995.19
2023-10-30T18:24:35.997Z,995.07
2023-10-30T18:28:36.450Z,995.03
2023-10-30T18:32:36.437Z,995.01
2023-10-30T18:36:36.411Z,995.1
2023-10-30T18:40:36.967Z,995.06
2023-10-30T18:44:37.086Z,994.94
2023-10-30T18:48:38.089Z,994.96
2023-10-30T18:52:36.954Z,994.96
2023-10-30T18:56:36.487Z,994.86
2023-10-30T19:00:38.786Z,994.98
2023-10-30T19:04:36.592Z,994.86
2023-10-30T19:08:36.695Z,994.79
2023-10-30T19:12:36.618Z,994.77
2023-10-30T19:16:36.951Z,994.82
2023-10-30T19:20:37.675Z,994.67
2023-10-30T19:24:36.026Z,994.7
2023-10-30T19:28:36.264Z,994.71
2023-10-30T19:32:36.486Z,994.85
2023-10-30T19:36:36.328Z,994.74
2023-10-30T19:40:36.834Z,994.61
2023-10-30T19:44:36.836Z,994.59
2023-10-30T19:48:35.995Z,994.58
2023-10-30T19:52:41.178Z,994.61
2023-10-30T19:56:36.250Z,994.68
2023-10-30T20:00:39.004Z,994.73
2023-10-30T20:04:36.123Z,994.89
2023-10-30T20:08:36.317Z,994.99
2023-10-30T20:12:36.516Z,994.96
2023-10-30T20:16:36.994Z,994.94
2023-10-30T20:20:37.123Z,994.83
2023-10-30T20:24:36.172Z,994.94
2023-10-30T20:28:36.251Z,994.7
2023-10-30T20:32:36.955Z,994.85
2023-10-30T20:36:36.795Z,994.88
2023-10-30T20:40:36.301Z,994.86
2023-10-30T20:44:35.990Z,994.92
2023-10-30T20:48:36.229Z,994.89
2023-10-30T20:52:36.525Z,994.96
2023-10-30T20:56:36.658Z,995.04
2023-10-30T21:00:38.833Z,994.95
2023-10-30T21:04:36.160Z,995.01
2023-10-30T21:08:36.553Z,995.01
2023-10-30T21:12:36.693Z,995.01
2023-10-30T21:16:37.414Z,995.04
2023-10-30T21:20:36.600Z,995.03
2023-10-30T21:24:36.689Z,995.05
2023-10-30T21:28:36.668Z,995.05
2023-10-30T21:32:36.989Z,995.11
2023-10-30T21:36:36.204Z,995.19
2023-10-30T21:40:37.093Z,995.15
2023-10-30T21:44:36.689Z,995.2
2023-10-30T21:48:36.108Z,995.16
2023-10-30T21:52:36.319Z,995.23
2023-10-30T21:56:36.699Z,995.24
2023-10-30T22:00:40.877Z,994.98
2023-10-30T22:04:36.329Z,995.04
2023-10-30T22:08:40.105Z,994.94
2023-10-30T22:12:36.350Z,995.03
2023-10-30T22:16:36.476Z,995
2023-10-30T22:20:37.032Z,995.06
2023-10-30T22:24:36.092Z,995.1
2023-10-30T22:28:36.316Z,995.11
2023-10-30T22:32:36.857Z,995.11
2023-10-30T22:36:37.010Z,995.1
2023-10-30T22:40:36.667Z,995.17
2023-10-30T22:44:36.719Z,995.26
2023-10-30T22:48:36.872Z,995.13
2023-10-30T22:52:35.956Z,995.12
2023-10-30T22:56:36.049Z,995.04
2023-10-30T23:00:37.241Z,995.17
2023-10-30T23:04:36.114Z,995.23
2023-10-30T23:08:36.769Z,995.32
2023-10-30T23:12:36.450Z,995.3
2023-10-30T23:16:36.909Z,995.24
2023-10-30T23:20:36.271Z,995.3
2023-10-30T23:24:36.113Z,995.32
2023-10-30T23:28:36.396Z,995.29
2023-10-30T23:32:36.954Z,995.16
2023-10-30T23:36:36.238Z,995.28
2023-10-30T23:40:36.612Z,995.16
2023-10-30T23:44:36.686Z,995.05
2023-10-30T23:48:37.214Z,995.17
2023-10-30T23:52:35.972Z,995.19
2023-10-30T23:56:36.673Z,995.21
